sensor_id;sensor_type;location;lat;lon;timestamp;pressure;altitude;pressure_sealevel;temperature;humidity
49949;BME280;35840;45.982;8.890;2023-05-08T00:01:03;98456.59;;;16.68;81.01
49949;BME280;35840;45.982;8.890;2023-05-08T00:03:30;98461.94;;;16.77;81.51
49949;BME280;35840;45.982;8.890;2023-05-08T00:05:57;98465.66;;;16.84;81.11
49949;BME280;35840;45.982;8.890;2023-05-08T00:08:23;98468.03;;;16.87;81.76
49949;BME280;35840;45.982;8.890;2023-05-08T00:10:50;98467.09;;;16.88;81.54
49949;BME280;35840;45.982;8.890;2023-05-08T00:13:17;98462.91;;;16.97;81.08
49949;BME280;35840;45.982;8.890;2023-05-08T00:15:44;98462.81;;;17.08;80.19
49949;BME280;35840;45.982;8.890;2023-05-08T00:18:10;98463.88;;;17.06;79.84
49949;BME280;35840;45.982;8.890;2023-05-08T00:20:38;98459.53;;;16.85;79.65
49949;BME280;35840;45.982;8.890;2023-05-08T00:23:04;98452.28;;;16.79;79.72
49949;BME280;35840;45.982;8.890;2023-05-08T00:25:31;98459.34;;;16.77;79.89
49949;BME280;35840;45.982;8.890;2023-05-08T00:27:59;98446.50;;;16.75;79.96
49949;BME280;35840;45.982;8.890;2023-05-08T00:30:26;98448.03;;;16.78;79.08
49949;BME280;35840;45.982;8.890;2023-05-08T00:32:53;98455.94;;;16.76;79.58
49949;BME280;35840;45.982;8.890;2023-05-08T00:35:20;98452.41;;;16.77;78.66
49949;BME280;35840;45.982;8.890;2023-05-08T00:37:47;98450.16;;;16.73;78.69
49949;BME280;35840;45.982;8.890;2023-05-08T00:40:13;98447.66;;;16.30;80.26
49949;BME280;35840;45.982;8.890;2023-05-08T00:42:41;98448.91;;;16.36;80.65
49949;BME280;35840;45.982;8.890;2023-05-08T00:45:08;98449.13;;;16.33;79.73
49949;BME280;35840;45.982;8.890;2023-05-08T00:47:35;98444.22;;;16.30;80.30
49949;BME280;35840;45.982;8.890;2023-05-08T00:50:02;98444.91;;;16.11;80.97
49949;BME280;35840;45.982;8.890;2023-05-08T00:52:30;98454.41;;;16.00;81.08
49949;BME280;35840;45.982;8.890;2023-05-08T00:55:00;98449.09;;;16.02;81.15
49949;BME280;35840;45.982;8.890;2023-05-08T00:57:29;98448.69;;;16.07;80.32
49949;BME280;35840;45.982;8.890;2023-05-08T00:59:59;98449.31;;;16.20;80.72
49949;BME280;35840;45.982;8.890;2023-05-08T01:02:27;98448.31;;;16.32;80.97
49949;BME280;35840;45.982;8.890;2023-05-08T01:04:54;98448.44;;;16.31;79.45
49949;BME280;35840;45.982;8.890;2023-05-08T01:07:21;98447.72;;;16.19;79.96
49949;BME280;35840;45.982;8.890;2023-05-08T01:09:48;98448.97;;;16.04;80.36
49949;BME280;35840;45.982;8.890;2023-05-08T01:33:48;98463.13;;;15.99;79.33
49949;BME280;35840;45.982;8.890;2023-05-08T01:42:07;98476.94;;;15.77;80.60
49949;BME280;35840;45.982;8.890;2023-05-08T01:44:44;98469.38;;;15.53;81.88
49949;BME280;35840;45.982;8.890;2023-05-08T01:47:13;98467.84;;;15.50;81.98
49949;BME280;35840;45.982;8.890;2023-05-08T01:49:44;98466.91;;;15.40;82.57
49949;BME280;35840;45.982;8.890;2023-05-08T01:52:21;98471.31;;;15.28;82.45
49949;BME280;35840;45.982;8.890;2023-05-08T01:54:58;98467.28;;;15.36;82.81
49949;BME280;35840;45.982;8.890;2023-05-08T01:57:28;98469.75;;;15.37;82.11
49949;BME280;35840;45.982;8.890;2023-05-08T01:59:56;98460.22;;;15.26;82.52
49949;BME280;35840;45.982;8.890;2023-05-08T02:02:27;98474.22;;;15.35;82.36
49949;BME280;35840;45.982;8.890;2023-05-08T02:04:56;98469.72;;;15.48;82.18
49949;BME280;35840;45.982;8.890;2023-05-08T02:07:23;98479.13;;;15.61;81.25
49949;BME280;35840;45.982;8.890;2023-05-08T02:09:52;98478.53;;;15.57;80.80
49949;BME280;35840;45.982;8.890;2023-05-08T02:12:21;98479.59;;;15.55;80.80
49949;BME280;35840;45.982;8.890;2023-05-08T02:14:49;98480.56;;;15.54;80.79
49949;BME280;35840;45.982;8.890;2023-05-08T02:17:19;98488.19;;;15.66;81.43
49949;BME280;35840;45.982;8.890;2023-05-08T02:19:47;98483.78;;;15.78;79.95
49949;BME280;35840;45.982;8.890;2023-05-08T02:22:15;98492.19;;;15.82;79.43
49949;BME280;35840;45.982;8.890;2023-05-08T02:24:44;98487.00;;;15.82;79.50
49949;BME280;35840;45.982;8.890;2023-05-08T02:27:12;98484.63;;;15.79;79.60
49949;BME280;35840;45.982;8.890;2023-05-08T02:29:39;98487.09;;;15.80;79.79
49949;BME280;35840;45.982;8.890;2023-05-08T02:32:08;98496.50;;;15.93;80.48
49949;BME280;35840;45.982;8.890;2023-05-08T02:34:36;98490.00;;;15.98;79.60
49949;BME280;35840;45.982;8.890;2023-05-08T02:37:11;98493.41;;;15.99;79.02
49949;BME280;35840;45.982;8.890;2023-05-08T02:39:40;98489.31;;;15.96;79.37
49949;BME280;35840;45.982;8.890;2023-05-08T02:42:07;98503.53;;;16.02;78.69
49949;BME280;35840;45.982;8.890;2023-05-08T02:44:34;98498.38;;;16.02;79.10
49949;BME280;35840;45.982;8.890;2023-05-08T02:52:27;98505.84;;;16.16;78.76
49949;BME280;35840;45.982;8.890;2023-05-08T02:55:14;98505.13;;;16.14;78.66
49949;BME280;35840;45.982;8.890;2023-05-08T02:57:46;98506.09;;;16.13;78.60
49949;BME280;35840;45.982;8.890;2023-05-08T03:00:19;98509.25;;;16.17;78.39
49949;BME280;35840;45.982;8.890;2023-05-08T03:02:54;98516.63;;;16.00;78.95
49949;BME280;35840;45.982;8.890;2023-05-08T03:05:34;98513.25;;;15.89;79.32
49949;BME280;35840;45.982;8.890;2023-05-08T03:08:14;98521.53;;;15.82;78.93
49949;BME280;35840;45.982;8.890;2023-05-08T03:10:44;98520.09;;;15.78;79.17
49949;BME280;35840;45.982;8.890;2023-05-08T03:13:13;98514.22;;;15.76;79.70
49949;BME280;35840;45.982;8.890;2023-05-08T03:15:45;98515.75;;;15.79;80.24
49949;BME280;35840;45.982;8.890;2023-05-08T03:18:24;98518.34;;;15.79;79.54
49949;BME280;35840;45.982;8.890;2023-05-08T03:20:55;98520.22;;;15.77;80.60
49949;BME280;35840;45.982;8.890;2023-05-08T03:23:25;98524.38;;;15.79;80.55
49949;BME280;35840;45.982;8.890;2023-05-08T03:25:54;98520.00;;;15.80;80.86
49949;BME280;35840;45.982;8.890;2023-05-08T03:28:23;98535.16;;;15.84;80.25
49949;BME280;35840;45.982;8.890;2023-05-08T03:30:52;98537.75;;;15.84;80.06
49949;BME280;35840;45.982;8.890;2023-05-08T03:33:22;98538.22;;;15.90;80.52
49949;BME280;35840;45.982;8.890;2023-05-08T03:35:50;98540.69;;;15.91;80.69
49949;BME280;35840;45.982;8.890;2023-05-08T03:38:17;98531.72;;;15.95;80.13
49949;BME280;35840;45.982;8.890;2023-05-08T03:40:44;98534.31;;;15.95;80.17
49949;BME280;35840;45.982;8.890;2023-05-08T03:43:11;98523.75;;;15.87;80.68
49949;BME280;35840;45.982;8.890;2023-05-08T03:45:39;98535.38;;;15.93;80.36
49949;BME280;35840;45.982;8.890;2023-05-08T03:48:08;98528.78;;;15.89;80.37
49949;BME280;35840;45.982;8.890;2023-05-08T03:50:36;98535.38;;;15.93;79.97
49949;BME280;35840;45.982;8.890;2023-05-08T03:53:08;98533.72;;;15.92;79.68
49949;BME280;35840;45.982;8.890;2023-05-08T03:55:35;98541.50;;;15.92;80.10
49949;BME280;35840;45.982;8.890;2023-05-08T03:58:20;98534.09;;;15.87;80.94
49949;BME280;35840;45.982;8.890;2023-05-08T04:03:46;98529.13;;;15.95;80.41
49949;BME280;35840;45.982;8.890;2023-05-08T04:06:27;98538.78;;;15.93;81.01
49949;BME280;35840;45.982;8.890;2023-05-08T04:09:23;98552.47;;;15.95;80.52
49949;BME280;35840;45.982;8.890;2023-05-08T04:14:51;98557.06;;;15.92;79.43
49949;BME280;35840;45.982;8.890;2023-05-08T04:17:36;98556.28;;;15.80;79.59
49949;BME280;35840;45.982;8.890;2023-05-08T04:20:08;98559.22;;;15.75;79.36
49949;BME280;35840;45.982;8.890;2023-05-08T04:22:38;98557.56;;;15.74;79.22
49949;BME280;35840;45.982;8.890;2023-05-08T04:25:07;98557.69;;;15.73;79.28
49949;BME280;35840;45.982;8.890;2023-05-08T04:27:35;98558.75;;;15.70;79.63
49949;BME280;35840;45.982;8.890;2023-05-08T04:30:03;98560.63;;;15.68;79.97
49949;BME280;35840;45.982;8.890;2023-05-08T04:32:32;98562.38;;;15.67;80.08
49949;BME280;35840;45.982;8.890;2023-05-08T04:35:01;98567.34;;;15.71;80.58
49949;BME280;35840;45.982;8.890;2023-05-08T04:37:29;98575.56;;;15.76;79.60
49949;BME280;35840;45.982;8.890;2023-05-08T04:40:02;98572.19;;;15.75;79.86
49949;BME280;35840;45.982;8.890;2023-05-08T04:42:32;98570.88;;;15.70;79.89
49949;BME280;35840;45.982;8.890;2023-05-08T04:45:02;98579.00;;;15.76;80.50
49949;BME280;35840;45.982;8.890;2023-05-08T04:47:30;98579.09;;;15.75;80.15
49949;BME280;35840;45.982;8.890;2023-05-08T04:49:57;98575.22;;;15.69;80.96
49949;BME280;35840;45.982;8.890;2023-05-08T04:52:27;98577.22;;;15.77;80.69
49949;BME280;35840;45.982;8.890;2023-05-08T04:54:54;98579.63;;;15.80;80.23
49949;BME280;35840;45.982;8.890;2023-05-08T04:57:21;98578.28;;;15.74;80.17
49949;BME280;35840;45.982;8.890;2023-05-08T04:59:47;98571.25;;;15.76;80.94
49949;BME280;35840;45.982;8.890;2023-05-08T05:02:15;98583.22;;;15.77;80.94
49949;BME280;35840;45.982;8.890;2023-05-08T05:04:42;98578.91;;;15.78;80.87
49949;BME280;35840;45.982;8.890;2023-05-08T05:07:09;98582.41;;;15.77;81.31
49949;BME280;35840;45.982;8.890;2023-05-08T05:09:36;98587.38;;;15.80;81.33
49949;BME280;35840;45.982;8.890;2023-05-08T05:12:05;98577.13;;;15.78;81.42
49949;BME280;35840;45.982;8.890;2023-05-08T05:14:33;98572.53;;;15.71;82.55
49949;BME280;35840;45.982;8.890;2023-05-08T05:17:00;98578.66;;;15.70;82.07
49949;BME280;35840;45.982;8.890;2023-05-08T05:19:27;98579.47;;;15.70;82.39
49949;BME280;35840;45.982;8.890;2023-05-08T05:21:55;98589.72;;;15.72;82.34
49949;BME280;35840;45.982;8.890;2023-05-08T05:24:21;98582.91;;;15.71;81.70
49949;BME280;35840;45.982;8.890;2023-05-08T05:26:48;98590.91;;;15.79;82.33
49949;BME280;35840;45.982;8.890;2023-05-08T05:29:15;98584.31;;;15.86;82.34
49949;BME280;35840;45.982;8.890;2023-05-08T05:31:42;98587.25;;;15.93;81.96
49949;BME280;35840;45.982;8.890;2023-05-08T05:34:09;98585.94;;;15.98;81.32
49949;BME280;35840;45.982;8.890;2023-05-08T05:36:36;98583.59;;;15.95;82.32
49949;BME280;35840;45.982;8.890;2023-05-08T05:39:03;98587.75;;;15.87;83.15
49949;BME280;35840;45.982;8.890;2023-05-08T05:41:32;98586.56;;;15.91;83.20
49949;BME280;35840;45.982;8.890;2023-05-08T05:44:00;98591.38;;;15.95;82.16
49949;BME280;35840;45.982;8.890;2023-05-08T05:46:26;98576.63;;;15.96;82.61
49949;BME280;35840;45.982;8.890;2023-05-08T05:49:00;98576.38;;;15.99;82.54
49949;BME280;35840;45.982;8.890;2023-05-08T05:51:27;98586.88;;;15.97;81.24
49949;BME280;35840;45.982;8.890;2023-05-08T05:53:55;98584.53;;;15.94;82.83
49949;BME280;35840;45.982;8.890;2023-05-08T05:56:24;98586.44;;;15.92;82.26
49949;BME280;35840;45.982;8.890;2023-05-08T05:58:51;98583.97;;;15.91;82.14
49949;BME280;35840;45.982;8.890;2023-05-08T06:01:18;98582.41;;;15.99;82.05
49949;BME280;35840;45.982;8.890;2023-05-08T06:03:45;98586.16;;;16.07;81.59
49949;BME280;35840;45.982;8.890;2023-05-08T06:06:12;98587.44;;;16.12;83.20
49949;BME280;35840;45.982;8.890;2023-05-08T06:08:39;98584.72;;;16.14;82.86
49949;BME280;35840;45.982;8.890;2023-05-08T06:11:05;98592.38;;;16.15;82.23
49949;BME280;35840;45.982;8.890;2023-05-08T06:13:32;98590.59;;;16.16;81.07
49949;BME280;35840;45.982;8.890;2023-05-08T06:15:59;98594.84;;;16.17;80.32
49949;BME280;35840;45.982;8.890;2023-05-08T06:18:26;98596.88;;;16.13;80.03
49949;BME280;35840;45.982;8.890;2023-05-08T06:20:57;98589.22;;;16.12;81.08
49949;BME280;35840;45.982;8.890;2023-05-08T06:23:24;98595.31;;;16.22;81.84
49949;BME280;35840;45.982;8.890;2023-05-08T06:25:52;98597.53;;;16.27;81.04
49949;BME280;35840;45.982;8.890;2023-05-08T06:28:19;98591.84;;;16.33;81.59
49949;BME280;35840;45.982;8.890;2023-05-08T06:30:47;98586.66;;;16.33;82.17
49949;BME280;35840;45.982;8.890;2023-05-08T06:33:14;98598.31;;;16.39;81.90
49949;BME280;35840;45.982;8.890;2023-05-08T06:35:45;98593.69;;;16.42;80.43
49949;BME280;35840;45.982;8.890;2023-05-08T06:38:12;98592.38;;;16.48;78.21
49949;BME280;35840;45.982;8.890;2023-05-08T06:40:42;98598.75;;;16.44;79.03
49949;BME280;35840;45.982;8.890;2023-05-08T06:43:10;98592.88;;;16.42;79.43
49949;BME280;35840;45.982;8.890;2023-05-08T06:45:38;98597.38;;;16.40;79.43
49949;BME280;35840;45.982;8.890;2023-05-08T06:48:05;98591.38;;;16.39;79.31
49949;BME280;35840;45.982;8.890;2023-05-08T06:50:32;98597.25;;;16.41;80.00
49949;BME280;35840;45.982;8.890;2023-05-08T06:52:59;98590.47;;;16.50;78.99
49949;BME280;35840;45.982;8.890;2023-05-08T06:55:25;98593.28;;;16.58;77.57
49949;BME280;35840;45.982;8.890;2023-05-08T06:57:52;98595.88;;;16.58;78.11
49949;BME280;35840;45.982;8.890;2023-05-08T07:00:19;98592.66;;;16.66;79.21
49949;BME280;35840;45.982;8.890;2023-05-08T07:02:46;98592.53;;;16.67;79.48
49949;BME280;35840;45.982;8.890;2023-05-08T07:05:12;98579.22;;;16.61;79.05
49949;BME280;35840;45.982;8.890;2023-05-08T07:07:40;98584.50;;;16.70;77.92
49949;BME280;35840;45.982;8.890;2023-05-08T07:10:08;98581.91;;;16.70;77.26
49949;BME280;35840;45.982;8.890;2023-05-08T07:12:35;98583.03;;;16.78;77.98
49949;BME280;35840;45.982;8.890;2023-05-08T07:15:02;98579.28;;;16.70;78.64
49949;BME280;35840;45.982;8.890;2023-05-08T07:17:43;98576.97;;;16.67;78.65
49949;BME280;35840;45.982;8.890;2023-05-08T07:20:10;98585.88;;;16.75;79.02
49949;BME280;35840;45.982;8.890;2023-05-08T07:22:36;98585.50;;;16.79;78.31
49949;BME280;35840;45.982;8.890;2023-05-08T07:25:04;98588.56;;;16.84;74.06
49949;BME280;35840;45.982;8.890;2023-05-08T07:27:30;98587.72;;;16.84;73.84
49949;BME280;35840;45.982;8.890;2023-05-08T07:29:57;98592.34;;;16.80;74.98
49949;BME280;35840;45.982;8.890;2023-05-08T07:32:29;98584.94;;;16.76;74.50
49949;BME280;35840;45.982;8.890;2023-05-08T07:34:57;98594.09;;;16.91;73.32
49949;BME280;35840;45.982;8.890;2023-05-08T07:37:24;98588.91;;;16.91;73.68
49949;BME280;35840;45.982;8.890;2023-05-08T07:39:50;98593.97;;;16.93;73.51
49949;BME280;35840;45.982;8.890;2023-05-08T07:42:17;98590.53;;;16.92;74.63
49949;BME280;35840;45.982;8.890;2023-05-08T07:44:44;98591.25;;;16.94;75.91
49949;BME280;35840;45.982;8.890;2023-05-08T07:47:19;98585.38;;;17.02;75.08
49949;BME280;35840;45.982;8.890;2023-05-08T07:49:46;98585.97;;;17.06;75.10
49949;BME280;35840;45.982;8.890;2023-05-08T07:52:13;98588.69;;;17.04;75.73
49949;BME280;35840;45.982;8.890;2023-05-08T07:54:39;98587.84;;;17.03;76.01
49949;BME280;35840;45.982;8.890;2023-05-08T07:57:06;98590.31;;;17.05;75.52
49949;BME280;35840;45.982;8.890;2023-05-08T07:59:33;98584.31;;;17.04;75.86
49949;BME280;35840;45.982;8.890;2023-05-08T08:01:59;98587.59;;;17.07;75.62
49949;BME280;35840;45.982;8.890;2023-05-08T08:04:26;98590.38;;;17.15;77.41
49949;BME280;35840;45.982;8.890;2023-05-08T08:06:53;98580.69;;;17.17;77.65
49949;BME280;35840;45.982;8.890;2023-05-08T08:09:20;98587.03;;;17.24;76.66
49949;BME280;35840;45.982;8.890;2023-05-08T08:11:47;98588.56;;;17.36;77.94
49949;BME280;35840;45.982;8.890;2023-05-08T08:14:14;98581.66;;;17.47;77.06
49949;BME280;35840;45.982;8.890;2023-05-08T08:16:41;98592.44;;;17.52;75.88
49949;BME280;35840;45.982;8.890;2023-05-08T08:19:08;98589.19;;;17.50;74.02
49949;BME280;35840;45.982;8.890;2023-05-08T08:21:41;98594.16;;;17.63;71.62
49949;BME280;35840;45.982;8.890;2023-05-08T08:24:08;98592.53;;;17.71;73.79
49949;BME280;35840;45.982;8.890;2023-05-08T08:26:35;98584.22;;;17.78;74.37
49949;BME280;35840;45.982;8.890;2023-05-08T08:29:02;98584.75;;;17.81;74.20
49949;BME280;35840;45.982;8.890;2023-05-08T08:31:29;98585.31;;;17.85;73.21
49949;BME280;35840;45.982;8.890;2023-05-08T08:33:56;98585.72;;;17.90;74.99
49949;BME280;35840;45.982;8.890;2023-05-08T08:36:23;98582.50;;;17.98;71.13
49949;BME280;35840;45.982;8.890;2023-05-08T08:38:49;98578.53;;;17.94;69.62
49949;BME280;35840;45.982;8.890;2023-05-08T08:41:16;98581.81;;;18.05;68.81
49949;BME280;35840;45.982;8.890;2023-05-08T08:43:43;98578.94;;;18.09;71.94
49949;BME280;35840;45.982;8.890;2023-05-08T08:46:11;98581.41;;;18.10;70.68
49949;BME280;35840;45.982;8.890;2023-05-08T08:48:43;98578.25;;;18.06;71.95
49949;BME280;35840;45.982;8.890;2023-05-08T08:51:14;98583.03;;;18.01;71.04
49949;BME280;35840;45.982;8.890;2023-05-08T08:53:45;98577.31;;;18.08;70.41
49949;BME280;35840;45.982;8.890;2023-05-08T08:56:15;98578.13;;;18.08;67.69
49949;BME280;35840;45.982;8.890;2023-05-08T08:58:49;98578.69;;;18.12;71.56
49949;BME280;35840;45.982;8.890;2023-05-08T09:01:20;98575.25;;;18.11;71.00
49949;BME280;35840;45.982;8.890;2023-05-08T09:03:49;98570.59;;;18.15;70.43
49949;BME280;35840;45.982;8.890;2023-05-08T09:06:18;98575.97;;;18.23;71.88
49949;BME280;35840;45.982;8.890;2023-05-08T09:08:45;98583.06;;;18.31;70.45
49949;BME280;35840;45.982;8.890;2023-05-08T09:11:12;98576.50;;;18.36;70.28
49949;BME280;35840;45.982;8.890;2023-05-08T09:13:39;98584.31;;;18.36;70.42
49949;BME280;35840;45.982;8.890;2023-05-08T09:16:06;98581.03;;;18.34;67.38
49949;BME280;35840;45.982;8.890;2023-05-08T09:18:33;98583.63;;;18.34;69.68
49949;BME280;35840;45.982;8.890;2023-05-08T09:21:00;98591.69;;;18.41;69.47
49949;BME280;35840;45.982;8.890;2023-05-08T09:23:27;98585.13;;;18.47;69.01
49949;BME280;35840;45.982;8.890;2023-05-08T09:25:54;98585.69;;;18.50;70.29
49949;BME280;35840;45.982;8.890;2023-05-08T09:28:22;98587.19;;;18.53;68.59
49949;BME280;35840;45.982;8.890;2023-05-08T09:30:58;98593.88;;;18.55;67.54
49949;BME280;35840;45.982;8.890;2023-05-08T09:33:27;98588.53;;;18.57;68.40
49949;BME280;35840;45.982;8.890;2023-05-08T09:35:55;98596.91;;;18.61;68.80
49949;BME280;35840;45.982;8.890;2023-05-08T09:38:32;98595.25;;;18.59;64.40
49949;BME280;35840;45.982;8.890;2023-05-08T09:41:13;98586.06;;;18.55;66.95
49949;BME280;35840;45.982;8.890;2023-05-08T09:43:42;98585.53;;;18.71;65.67
49949;BME280;35840;45.982;8.890;2023-05-08T09:48:51;98597.03;;;18.79;66.14
49949;BME280;35840;45.982;8.890;2023-05-08T09:51:20;98588.50;;;18.86;64.27
49949;BME280;35840;45.982;8.890;2023-05-08T09:53:51;98601.69;;;18.95;65.46
49949;BME280;35840;45.982;8.890;2023-05-08T09:58:57;98595.50;;;19.05;65.51
49949;BME280;35840;45.982;8.890;2023-05-08T10:03:54;98604.47;;;19.31;65.44
49949;BME280;35840;45.982;8.890;2023-05-08T10:06:21;98595.69;;;19.32;66.86
49949;BME280;35840;45.982;8.890;2023-05-08T10:08:47;98598.84;;;19.35;64.27
49949;BME280;35840;45.982;8.890;2023-05-08T10:11:19;98602.69;;;19.31;64.81
49949;BME280;35840;45.982;8.890;2023-05-08T10:13:47;98605.59;;;19.28;64.96
49949;BME280;35840;45.982;8.890;2023-05-08T10:16:15;98608.34;;;19.26;68.48
49949;BME280;35840;45.982;8.890;2023-05-08T10:18:48;98607.06;;;19.31;66.10
49949;BME280;35840;45.982;8.890;2023-05-08T10:21:16;98609.16;;;19.27;66.45
49949;BME280;35840;45.982;8.890;2023-05-08T10:23:43;98618.09;;;19.15;63.83
49949;BME280;35840;45.982;8.890;2023-05-08T10:26:15;98609.19;;;19.07;62.27
49949;BME280;35840;45.982;8.890;2023-05-08T10:28:54;98608.09;;;19.10;63.65
49949;BME280;35840;45.982;8.890;2023-05-08T10:31:27;98604.34;;;19.32;66.44
49949;BME280;35840;45.982;8.890;2023-05-08T10:33:54;98602.06;;;19.47;67.44
49949;BME280;35840;45.982;8.890;2023-05-08T10:36:24;98597.19;;;19.72;68.40
49949;BME280;35840;45.982;8.890;2023-05-08T10:38:56;98599.47;;;19.85;66.69
49949;BME280;35840;45.982;8.890;2023-05-08T10:41:24;98595.72;;;19.87;67.17
49949;BME280;35840;45.982;8.890;2023-05-08T10:43:52;98599.38;;;19.94;67.24
49949;BME280;35840;45.982;8.890;2023-05-08T10:49:21;98591.44;;;19.96;65.19
49949;BME280;35840;45.982;8.890;2023-05-08T10:52:11;98584.66;;;20.03;69.72
49949;BME280;35840;45.982;8.890;2023-05-08T10:58:15;98568.00;;;20.04;63.05
49949;BME280;35840;45.982;8.890;2023-05-08T11:03:29;98571.97;;;20.26;65.51
49949;BME280;35840;45.982;8.890;2023-05-08T11:05:59;98569.13;;;20.38;66.12
49949;BME280;35840;45.982;8.890;2023-05-08T11:08:28;98570.78;;;20.39;65.80
49949;BME280;35840;45.982;8.890;2023-05-08T11:13:31;98567.94;;;20.32;61.89
49949;BME280;35840;45.982;8.890;2023-05-08T11:15:59;98563.91;;;20.38;64.18
49949;BME280;35840;45.982;8.890;2023-05-08T11:18:26;98563.38;;;20.34;60.97
49949;BME280;35840;45.982;8.890;2023-05-08T11:21:14;98561.97;;;20.40;64.53
49949;BME280;35840;45.982;8.890;2023-05-08T11:23:41;98554.50;;;20.45;64.83
49949;BME280;35840;45.982;8.890;2023-05-08T11:26:14;98558.84;;;20.54;64.07
49949;BME280;35840;45.982;8.890;2023-05-08T11:28:57;98549.50;;;20.70;65.29
49949;BME280;35840;45.982;8.890;2023-05-08T11:31:50;98546.81;;;20.88;63.88
49949;BME280;35840;45.982;8.890;2023-05-08T11:34:44;98540.41;;;21.08;64.03
49949;BME280;35840;45.982;8.890;2023-05-08T11:37:22;98551.94;;;21.24;60.44
49949;BME280;35840;45.982;8.890;2023-05-08T11:39:49;98550.59;;;21.20;61.15
49949;BME280;35840;45.982;8.890;2023-05-08T11:45:07;98541.34;;;21.33;66.10
49949;BME280;35840;45.982;8.890;2023-05-08T11:47:39;98541.06;;;21.45;62.55
49949;BME280;35840;45.982;8.890;2023-05-08T11:50:08;98544.88;;;21.59;60.71
49949;BME280;35840;45.982;8.890;2023-05-08T11:52:36;98543.97;;;21.76;60.60
49949;BME280;35840;45.982;8.890;2023-05-08T11:55:06;98531.75;;;21.93;62.84
49949;BME280;35840;45.982;8.890;2023-05-08T11:57:34;98533.03;;;21.89;59.90
49949;BME280;35840;45.982;8.890;2023-05-08T12:00:04;98535.50;;;21.91;60.00
49949;BME280;35840;45.982;8.890;2023-05-08T12:02:41;98535.47;;;21.82;61.95
49949;BME280;35840;45.982;8.890;2023-05-08T12:05:09;98528.94;;;21.87;61.88
49949;BME280;35840;45.982;8.890;2023-05-08T12:07:46;98525.34;;;21.88;60.16
49949;BME280;35840;45.982;8.890;2023-05-08T12:10:13;98524.22;;;21.90;59.18
49949;BME280;35840;45.982;8.890;2023-05-08T12:12:42;98520.75;;;21.90;59.22
49949;BME280;35840;45.982;8.890;2023-05-08T12:15:12;98527.50;;;22.00;58.59
49949;BME280;35840;45.982;8.890;2023-05-08T12:17:39;98527.50;;;22.00;59.18
49949;BME280;35840;45.982;8.890;2023-05-08T12:20:16;98527.66;;;21.99;58.91
49949;BME280;35840;45.982;8.890;2023-05-08T12:22:51;98522.72;;;22.04;59.31
49949;BME280;35840;45.982;8.890;2023-05-08T12:25:18;98518.16;;;21.98;58.10
49949;BME280;35840;45.982;8.890;2023-05-08T12:27:45;98510.13;;;21.99;59.32
49949;BME280;35840;45.982;8.890;2023-05-08T12:30:13;98516.03;;;22.10;61.23
49949;BME280;35840;45.982;8.890;2023-05-08T12:32:42;98509.31;;;22.15;58.72
49949;BME280;35840;45.982;8.890;2023-05-08T12:35:13;98513.75;;;22.23;60.00
49949;BME280;35840;45.982;8.890;2023-05-08T12:37:40;98507.84;;;22.29;58.00
49949;BME280;35840;45.982;8.890;2023-05-08T12:40:18;98497.41;;;22.38;58.32
49949;BME280;35840;45.982;8.890;2023-05-08T12:42:48;98497.56;;;22.36;56.77
49949;BME280;35840;45.982;8.890;2023-05-08T12:45:20;98505.28;;;22.38;57.93
49949;BME280;35840;45.982;8.890;2023-05-08T12:47:48;98507.88;;;22.46;57.75
49949;BME280;35840;45.982;8.890;2023-05-08T12:50:17;98515.56;;;22.39;56.58
49949;BME280;35840;45.982;8.890;2023-05-08T12:52:46;98508.69;;;22.38;58.22
49949;BME280;35840;45.982;8.890;2023-05-08T12:55:28;98506.91;;;22.39;58.64
49949;BME280;35840;45.982;8.890;2023-05-08T12:58:09;98501.16;;;22.43;60.54
49949;BME280;35840;45.982;8.890;2023-05-08T13:00:43;98501.50;;;22.48;57.14
49949;BME280;35840;45.982;8.890;2023-05-08T13:03:12;98491.66;;;22.50;58.92
49949;BME280;35840;45.982;8.890;2023-05-08T13:05:43;98497.25;;;22.39;58.11
49949;BME280;35840;45.982;8.890;2023-05-08T13:08:11;98492.97;;;22.38;58.14
49949;BME280;35840;45.982;8.890;2023-05-08T13:10:54;98498.22;;;22.22;58.42
49949;BME280;35840;45.982;8.890;2023-05-08T13:13:23;98499.19;;;21.96;58.56
49949;BME280;35840;45.982;8.890;2023-05-08T13:15:53;98491.97;;;21.73;59.15
49949;BME280;35840;45.982;8.890;2023-05-08T13:18:22;98495.66;;;21.54;59.76
49949;BME280;35840;45.982;8.890;2023-05-08T13:20:49;98489.22;;;21.40;60.72
49949;BME280;35840;45.982;8.890;2023-05-08T13:23:16;98484.94;;;21.31;62.21
49949;BME280;35840;45.982;8.890;2023-05-08T13:25:43;98481.00;;;21.27;60.04
49949;BME280;35840;45.982;8.890;2023-05-08T13:28:09;98486.53;;;21.15;59.95
49949;BME280;35840;45.982;8.890;2023-05-08T13:30:37;98488.63;;;21.12;60.79
49949;BME280;35840;45.982;8.890;2023-05-08T13:33:04;98490.38;;;21.03;61.63
49949;BME280;35840;45.982;8.890;2023-05-08T13:35:32;98488.41;;;20.97;61.29
49949;BME280;35840;45.982;8.890;2023-05-08T13:37:59;98485.13;;;20.95;61.25
49949;BME280;35840;45.982;8.890;2023-05-08T13:40:26;98485.75;;;20.89;60.36
49949;BME280;35840;45.982;8.890;2023-05-08T13:42:53;98487.34;;;20.81;61.21
49949;BME280;35840;45.982;8.890;2023-05-08T13:45:20;98483.78;;;20.83;61.77
49949;BME280;35840;45.982;8.890;2023-05-08T13:47:48;98485.31;;;20.67;60.86
49949;BME280;35840;45.982;8.890;2023-05-08T13:50:16;98486.41;;;20.64;64.24
49949;BME280;35840;45.982;8.890;2023-05-08T13:52:44;98477.81;;;20.46;68.90
49949;BME280;35840;45.982;8.890;2023-05-08T13:55:12;98473.06;;;20.23;71.88
49949;BME280;35840;45.982;8.890;2023-05-08T13:57:40;98483.06;;;20.28;73.98
49949;BME280;35840;45.982;8.890;2023-05-08T14:00:07;98489.50;;;19.98;73.66
49949;BME280;35840;45.982;8.890;2023-05-08T14:02:35;98494.34;;;19.92;74.18
49949;BME280;35840;45.982;8.890;2023-05-08T14:05:04;98489.50;;;19.80;75.80
49949;BME280;35840;45.982;8.890;2023-05-08T14:07:34;98491.63;;;19.66;78.25
49949;BME280;35840;45.982;8.890;2023-05-08T14:10:01;98500.22;;;19.49;78.01
49949;BME280;35840;45.982;8.890;2023-05-08T14:12:28;98498.88;;;19.44;77.64